Time;durP1;ratioP1;P1;durP2;ratioP2;P2;SDS_P1;SDS_P2;PMS_P1;PMS_P2;Temp;Humidity;BMP_temperature;BMP_pressure;BME280_temperature;BME280_humidity;BME280_pressure;Samples;Min_cycle;Max_cycle;Signal;HPM_P1;HPM_P2
2024/01/13 00:02:03;;;;;;;0.80;0.60;;;;;;;-143.84;37.28;45247.09;5099444;28;21115;-59
2024/01/13 00:04:31;;;;;;;0.80;0.50;;;;;;;-143.84;37.83;45239.50;5111335;28;20211;-60
2024/01/13 00:06:58;;;;;;;0.80;0.50;;;;;;;-143.84;38.44;45262.34;5111092;28;20229;-59
2024/01/13 00:09:26;;;;;;;0.80;0.50;;;;;;;-143.84;37.53;45226.16;5111233;28;20198;-59
2024/01/13 00:11:53;;;;;;;0.80;0.50;;;;;;;-143.84;36.43;45269.97;5111034;28;20438;-59
2024/01/13 00:14:20;;;;;;;0.80;0.40;;;;;;;-143.84;35.45;45243.31;5111030;28;20197;-59
2024/01/13 00:16:47;;;;;;;0.80;0.50;;;;;;;-143.84;35.45;45245.19;5105188;28;20554;-59
2024/01/13 00:19:14;;;;;;;0.80;0.50;;;;;;;-143.84;35.91;45269.97;5090577;28;20444;-59
2024/01/13 00:21:43;;;;;;;0.80;0.50;;;;;;;-143.84;36.58;45250.91;5072365;28;20343;-59
2024/01/13 00:24:10;;;;;;;0.80;0.50;;;;;;;-143.84;37.24;45239.50;5070341;28;20938;-59
2024/01/13 00:26:37;;;;;;;0.80;0.50;;;;;;;-143.84;37.47;45254.72;5070135;28;20495;-59
2024/01/13 00:29:04;;;;;;;0.80;0.50;;;;;;;-143.84;37.32;45231.88;5069860;28;20502;-60
2024/01/13 00:31:31;;;;;;;0.80;0.60;;;;;;;-143.84;37.41;45226.16;5070201;28;20445;-60
2024/01/13 00:33:58;;;;;;;0.80;0.50;;;;;;;-143.84;37.66;45249.00;5069714;28;20451;-60
2024/01/13 00:36:26;;;;;;;0.80;0.50;;;;;;;-143.84;37.57;45254.72;5069489;28;20972;-59
2024/01/13 00:38:54;;;;;;;0.80;0.50;;;;;;;-143.84;37.67;45229.97;5069063;28;20799;-60
2024/01/13 00:41:20;;;;;;;0.80;0.40;;;;;;;-143.84;37.55;45220.44;5069502;28;20433;-59
2024/01/13 00:43:48;;;;;;;0.80;0.50;;;;;;;-143.84;37.46;45235.69;5068735;28;20453;-59
2024/01/13 00:46:15;;;;;;;0.80;0.50;;;;;;;-143.84;36.67;45218.53;5069504;28;20473;-59
2024/01/13 00:48:42;;;;;;;0.80;0.50;;;;;;;-143.84;36.60;45231.88;5069802;28;20440;-60
2024/01/13 00:51:09;;;;;;;0.80;0.40;;;;;;;-143.84;36.76;45249.00;5069527;28;20445;-59
2024/01/13 00:53:36;;;;;;;0.80;0.50;;;;;;;-143.84;36.61;45229.97;5069603;28;20510;-59
2024/01/13 00:56:06;;;;;;;1.17;1.07;;;;;;;-143.84;36.39;45212.84;5069999;28;20907;-60
2024/01/13 00:58:33;;;;;;;0.80;0.40;;;;;;;-143.84;36.44;45239.50;5069509;28;20449;-60
2024/01/13 01:01:02;;;;;;;0.80;0.50;;;;;;;-143.84;36.46;45231.88;5069751;28;20449;-59
2024/01/13 01:03:30;;;;;;;0.80;0.50;;;;;;;-143.84;36.39;45231.88;5069436;28;20441;-60
2024/01/13 01:05:58;;;;;;;0.80;0.50;;;;;;;-143.84;36.04;45220.44;5069515;28;20437;-60
2024/01/13 01:08:26;;;;;;;0.80;0.40;;;;;;;-143.84;36.03;45209.03;5069206;28;20472;-59
2024/01/13 01:10:53;;;;;;;0.80;0.50;;;;;;;-143.84;35.77;45220.44;5069676;28;20789;-60
2024/01/13 01:13:21;;;;;;;0.80;0.50;;;;;;;-143.84;35.94;45247.09;5069417;28;20535;-60
2024/01/13 01:15:49;;;;;;;0.80;0.40;;;;;;;-143.84;36.00;45226.16;5069192;28;20452;-60
2024/01/13 01:18:16;;;;;;;0.80;0.43;;;;;;;-143.84;35.99;45212.84;5069194;28;20464;-59
2024/01/13 01:20:43;;;;;;;0.80;0.50;;;;;;;-143.84;35.85;45224.25;5076056;28;20478;-60
2024/01/13 01:23:11;;;;;;;0.80;0.40;;;;;;;-143.84;36.09;45237.59;5089117;28;20436;-59
2024/01/13 01:25:38;;;;;;;0.80;0.50;;;;;;;-143.84;36.13;45220.44;5089878;28;20922;-60
2024/01/13 01:28:06;;;;;;;0.70;0.40;;;;;;;-143.84;36.36;45210.94;5089047;28;20517;-60
2024/01/13 01:30:34;;;;;;;0.80;0.50;;;;;;;-143.84;36.36;45226.16;5089617;28;20448;-60
2024/01/13 01:33:01;;;;;;;1.10;1.00;;;;;;;-143.84;36.55;45231.88;5089302;28;20440;-59
2024/01/13 01:35:28;;;;;;;0.80;0.50;;;;;;;-143.84;36.63;45249.00;5089178;28;20824;-60
2024/01/13 01:37:56;;;;;;;0.80;0.50;;;;;;;-143.84;36.82;45239.50;5089138;28;20429;-60
2024/01/13 01:40:26;;;;;;;0.80;0.50;;;;;;;-143.84;36.82;45224.25;5089272;28;20560;-60
2024/01/13 01:42:54;;;;;;;0.90;0.77;;;;;;;-143.84;36.73;45249.00;5088972;28;20442;-59
2024/01/13 01:45:21;;;;;;;1.73;1.27;;;;;;;-143.84;36.83;45226.16;5089334;28;20949;-59
2024/01/13 01:47:52;;;;;;;0.80;0.50;;;;;;;-143.84;36.70;45247.09;5089023;28;20629;-59
2024/01/13 01:50:19;;;;;;;0.80;0.50;;;;;;;-143.84;36.75;45209.03;5089219;28;20444;-59
2024/01/13 01:52:46;;;;;;;0.80;0.50;;;;;;;-143.84;36.83;45241.41;5088956;28;20443;-59
2024/01/13 01:55:14;;;;;;;1.23;1.13;;;;;;;-143.84;36.68;45222.34;5089045;28;20497;-59
2024/01/13 01:57:41;;;;;;;0.80;0.50;;;;;;;-143.84;36.67;45231.88;5089155;28;20460;-59
2024/01/13 02:00:10;;;;;;;0.80;0.50;;;;;;;-143.84;36.51;45222.34;5089086;28;20744;-60
2024/01/13 02:02:37;;;;;;;0.80;0.50;;;;;;;-143.84;36.52;45254.72;5089055;28;20445;-60
2024/01/13 02:05:07;;;;;;;0.80;0.50;;;;;;;-143.84;36.57;45241.41;5089048;28;20440;-60
2024/01/13 02:07:34;;;;;;;0.80;0.50;;;;;;;-143.84;36.65;45252.81;5088907;28;20472;-60
2024/01/13 02:10:03;;;;;;;0.80;0.40;;;;;;;-143.84;36.77;45209.03;5088960;28;20883;-59
2024/01/13 02:12:30;;;;;;;0.80;0.60;;;;;;;-143.84;36.76;45224.25;5088875;28;20832;-60
2024/01/13 02:14:57;;;;;;;0.80;0.50;;;;;;;-143.84;36.75;45224.25;5088745;28;20448;-59
2024/01/13 02:17:25;;;;;;;0.80;0.50;;;;;;;-143.84;36.79;45224.25;5088732;28;20440;-59
2024/01/13 02:19:52;;;;;;;1.33;1.23;;;;;;;-143.84;36.83;45229.97;5088605;28;20451;-60
2024/01/13 02:22:20;;;;;;;0.80;0.50;;;;;;;-143.84;36.81;45214.72;5080321;28;20440;-60
2024/01/13 02:24:48;;;;;;;3.60;2.00;;;;;;;-143.84;37.23;45201.41;5088653;28;20876;-60
2024/01/13 02:27:15;;;;;;;0.80;0.60;;;;;;;-143.84;37.01;45235.69;5088821;28;20921;-60
2024/01/13 02:29:42;;;;;;;0.80;0.50;;;;;;;-143.84;37.13;45249.00;5088815;28;20525;-60
2024/01/13 02:32:09;;;;;;;0.80;0.50;;;;;;;-143.84;37.57;45249.00;5088681;28;20441;-59
2024/01/13 02:34:36;;;;;;;0.80;0.40;;;;;;;-143.84;37.55;45220.44;5088811;28;20888;-60
2024/01/13 02:37:04;;;;;;;0.80;0.63;;;;;;;-143.84;37.64;45209.03;5088563;28;20487;-60
2024/01/13 02:39:32;;;;;;;0.80;0.53;;;;;;;-143.84;37.61;45241.41;5102311;28;20576;-59
2024/01/13 02:41:59;;;;;;;0.80;0.50;;;;;;;-143.84;37.57;45245.19;5108940;28;20443;-60
2024/01/13 02:44:26;;;;;;;0.80;0.50;;;;;;;-143.84;37.11;45222.34;5108039;28;20563;-59
2024/01/13 02:46:53;;;;;;;0.80;0.50;;;;;;;-143.84;37.11;45250.91;5088511;28;20444;-59
2024/01/13 02:49:21;;;;;;;0.80;0.40;;;;;;;-143.84;37.42;45239.50;5088242;28;20485;-60
2024/01/13 02:51:48;;;;;;;0.80;0.50;;;;;;;-143.84;37.38;45209.03;5088469;28;20473;-59
2024/01/13 02:54:15;;;;;;;0.80;0.80;;;;;;;-143.84;37.18;45241.41;5088093;28;20439;-59
2024/01/13 02:56:44;;;;;;;0.80;0.40;;;;;;;-143.84;37.03;45254.72;5088251;28;20500;-59
2024/01/13 02:59:11;;;;;;;0.80;0.60;;;;;;;-143.84;36.97;45235.69;5088628;28;20505;-59
2024/01/13 03:01:38;;;;;;;0.80;0.50;;;;;;;-143.84;36.64;45233.78;5088101;28;20954;-59
2024/01/13 03:04:06;;;;;;;0.80;0.50;;;;;;;-143.84;36.76;45254.72;5088378;28;20462;-59
2024/01/13 03:06:33;;;;;;;0.80;0.50;;;;;;;-143.84;36.85;45231.88;5089288;28;20950;-59
2024/01/13 03:09:01;;;;;;;0.80;0.50;;;;;;;-143.84;36.79;45237.59;5092063;28;20525;-60
2024/01/13 03:11:28;;;;;;;0.80;0.43;;;;;;;-143.84;36.56;45228.06;5092062;28;20516;-59
2024/01/13 03:13:58;;;;;;;0.80;0.50;;;;;;;-143.84;36.53;45231.88;5091893;28;20794;-59
2024/01/13 03:16:26;;;;;;;0.80;0.50;;;;;;;-143.84;36.53;45228.06;5087510;28;20804;-60
2024/01/13 03:18:53;;;;;;;0.80;0.40;;;;;;;-143.84;36.97;45250.91;5091901;28;20865;-59
2024/01/13 03:21:20;;;;;;;0.80;0.50;;;;;;;-143.84;36.94;45224.25;5091704;28;20537;-59
2024/01/13 03:23:47;;;;;;;0.80;0.50;;;;;;;-143.84;37.13;45252.81;5091529;28;20467;-60
2024/01/13 03:26:14;;;;;;;1.00;0.88;;;;;;;-143.84;37.04;45252.81;5091639;28;20435;-59
2024/01/13 03:28:43;;;;;;;0.80;0.70;;;;;;;-143.84;37.55;45216.63;5092026;28;20286;-59
2024/01/13 03:31:13;;;;;;;0.80;0.50;;;;;;;-143.84;36.90;45247.09;5091536;28;20432;-59
2024/01/13 03:33:40;;;;;;;0.80;0.50;;;;;;;-143.84;36.51;45228.06;5091325;28;20205;-59
2024/01/13 03:36:08;;;;;;;0.80;0.50;;;;;;;-143.84;36.59;45224.25;5091535;28;20202;-59
2024/01/13 03:38:36;;;;;;;0.80;0.50;;;;;;;-143.84;36.50;45241.41;5097434;28;20261;-59
2024/01/13 03:41:03;;;;;;;0.80;0.60;;;;;;;-143.84;37.07;45239.50;5111686;28;20201;-59
2024/01/13 03:43:30;;;;;;;0.80;0.50;;;;;;;-143.84;36.69;45243.31;5111700;28;20525;-59
2024/01/13 03:45:57;;;;;;;0.80;0.57;;;;;;;-143.84;36.34;45243.31;5111760;28;20876;-59
2024/01/13 03:48:26;;;;;;;0.80;0.50;;;;;;;-143.84;36.60;45250.91;5111654;28;20974;-59
2024/01/13 03:50:53;;;;;;;0.80;0.60;;;;;;;-143.84;36.30;45216.63;5111415;28;20508;-59
2024/01/13 03:53:20;;;;;;;0.80;0.57;;;;;;;-143.84;36.69;45241.41;5111745;28;20774;-59
2024/01/13 03:55:47;;;;;;;1.73;1.63;;;;;;;-143.84;36.76;45224.25;5111418;28;20439;-59
2024/01/13 03:58:14;;;;;;;0.80;0.50;;;;;;;-143.84;36.89;45231.88;5111526;28;20443;-59
2024/01/13 04:00:41;;;;;;;0.80;0.40;;;;;;;-143.84;36.74;45243.31;5111852;28;20449;-60
2024/01/13 04:03:09;;;;;;;0.80;0.50;;;;;;;-143.84;36.76;45203.31;5111281;28;20443;-59
2024/01/13 04:05:37;;;;;;;0.80;0.50;;;;;;;-143.84;36.71;45241.41;5111141;28;20948;-59
2024/01/13 04:08:05;;;;;;;0.80;0.50;;;;;;;-143.84;37.21;45235.69;5110863;28;20478;-59
2024/01/13 04:10:32;;;;;;;0.80;0.50;;;;;;;-143.84;37.22;45222.34;5111275;28;20439;-59
2024/01/13 04:12:59;;;;;;;0.80;0.50;;;;;;;-143.84;37.36;45228.06;5111085;28;21023;-59
2024/01/13 04:15:26;;;;;;;0.80;0.50;;;;;;;-143.84;37.13;45266.16;5111179;28;20439;-59
2024/01/13 04:17:53;;;;;;;0.80;0.50;;;;;;;-143.84;37.38;45231.88;5110084;28;20443;-59
2024/01/13 04:20:20;;;;;;;1.98;1.00;;;;;;;-143.84;37.24;45233.78;5110530;28;20482;-59
2024/01/13 04:22:49;;;;;;;0.80;0.50;;;;;;;-143.84;37.21;45256.63;5110924;28;20296;-59
2024/01/13 04:25:16;;;;;;;0.80;0.40;;;;;;;-143.84;37.13;45218.53;5110866;28;20465;-59
2024/01/13 04:27:43;;;;;;;0.80;0.50;;;;;;;-143.84;37.07;45249.00;5110582;28;20535;-59
2024/01/13 04:30:11;;;;;;;0.80;0.50;;;;;;;-143.84;37.16;45210.94;5110816;28;20858;-59
2024/01/13 04:32:39;;;;;;;0.80;0.50;;;;;;;-143.84;37.12;45220.44;5110720;28;20435;-59
2024/01/13 04:35:07;;;;;;;1.00;0.90;;;;;;;-143.84;37.35;45226.16;5110858;28;20571;-59
2024/01/13 04:37:34;;;;;;;0.80;0.50;;;;;;;-143.84;37.16;45254.72;5110669;28;20818;-59
2024/01/13 04:40:03;;;;;;;0.80;0.50;;;;;;;-143.84;37.61;45241.41;5090550;28;20448;-59
2024/01/13 04:42:31;;;;;;;0.80;0.50;;;;;;;-143.84;37.81;45224.25;5090101;28;20444;-59
2024/01/13 04:44:58;;;;;;;0.80;0.50;;;;;;;-143.84;38.12;45224.25;5090194;28;20424;-60
2024/01/13 04:47:26;;;;;;;0.80;0.50;;;;;;;-143.84;37.80;45247.09;5090059;28;20839;-60
2024/01/13 04:49:53;;;;;;;0.80;0.50;;;;;;;-143.84;37.87;45231.88;5089991;28;20444;-59
2024/01/13 04:52:21;;;;;;;0.80;0.50;;;;;;;-143.84;37.45;45258.53;5082097;28;20466;-59
2024/01/13 04:54:48;;;;;;;1.03;0.93;;;;;;;-143.84;37.65;45243.31;5090039;28;20505;-59
2024/01/13 04:57:17;;;;;;;0.90;0.70;;;;;;;-143.84;37.85;45250.91;5077504;28;21365;-59
2024/01/13 04:59:45;;;;;;;0.90;0.70;;;;;;;-143.84;37.90;45220.44;5087212;28;20443;-60
2024/01/13 05:02:12;;;;;;;0.82;0.60;;;;;;;-143.84;38.06;45249.00;5091546;28;20434;-59
2024/01/13 05:04:39;;;;;;;0.80;0.50;;;;;;;-143.84;38.11;45264.25;5108897;28;20197;-59
2024/01/13 05:07:07;;;;;;;0.93;0.73;;;;;;;-143.84;38.75;45252.81;5109631;28;20519;-59
2024/01/13 05:09:34;;;;;;;0.80;0.50;;;;;;;-143.84;38.83;45235.69;5109026;28;20483;-59
2024/01/13 05:12:01;;;;;;;0.80;0.50;;;;;;;-143.84;38.46;45218.53;5108749;28;20504;-59
2024/01/13 05:14:30;;;;;;;0.80;0.50;;;;;;;-143.84;38.89;45237.59;5109789;28;20435;-59
2024/01/13 05:16:57;;;;;;;0.80;0.50;;;;;;;-143.84;39.65;45218.53;5109938;28;20496;-59
2024/01/13 05:19:25;;;;;;;0.80;0.50;;;;;;;-143.84;39.77;45247.09;5109685;28;20511;-59
2024/01/13 05:21:52;;;;;;;0.80;0.50;;;;;;;-143.84;39.93;45249.00;5109592;28;20289;-59
2024/01/13 05:24:19;;;;;;;0.93;0.82;;;;;;;-143.84;40.66;45247.09;5109622;28;20716;-59
2024/01/13 05:26:46;;;;;;;0.80;0.60;;;;;;;-143.84;41.85;45237.59;5108306;28;20259;-60
2024/01/13 05:29:13;;;;;;;0.90;0.60;;;;;;;-143.84;42.42;45256.63;5109258;28;20220;-60
2024/01/13 05:31:43;;;;;;;0.80;0.50;;;;;;;-143.84;43.42;45249.00;5109607;28;20254;-60
2024/01/13 05:34:10;;;;;;;0.80;0.60;;;;;;;-143.84;44.16;45239.50;5109731;28;20197;-60
2024/01/13 05:36:37;;;;;;;1.00;0.90;;;;;;;-143.84;44.65;45228.06;5096778;28;20202;-60
2024/01/13 05:39:04;;;;;;;6.53;1.30;;;;;;;-143.84;45.15;45237.59;5098805;28;20209;-60
2024/01/13 05:41:31;;;;;;;0.80;0.60;;;;;;;-143.84;45.93;45239.50;5109320;28;20204;-60
2024/01/13 05:43:58;;;;;;;2.10;1.08;;;;;;;-143.84;46.63;45258.53;5109225;28;20197;-60
2024/01/13 05:46:25;;;;;;;0.80;0.70;;;;;;;-143.84;47.16;45258.53;5090368;28;20198;-60
2024/01/13 05:48:54;;;;;;;0.80;0.50;;;;;;;-143.84;47.48;45250.91;5088919;28;20217;-60
2024/01/13 05:51:22;;;;;;;0.80;0.60;;;;;;;-143.84;48.14;45249.00;5088827;28;20282;-60
2024/01/13 05:53:49;;;;;;;0.80;0.50;;;;;;;-143.84;48.27;45239.50;5088926;28;20222;-60
2024/01/13 05:56:16;;;;;;;0.80;0.50;;;;;;;-143.84;48.60;45250.91;5088533;28;20198;-60
2024/01/13 05:58:43;;;;;;;0.90;0.68;;;;;;;-143.84;48.64;45245.19;5089035;28;20198;-60
2024/01/13 06:01:10;;;;;;;1.80;1.70;;;;;;;-143.84;48.43;45277.56;5088990;28;20221;-60
2024/01/13 06:03:37;;;;;;;1.20;0.93;;;;;;;-143.84;48.51;45260.44;5088481;28;20202;-60
2024/01/13 06:06:08;;;;;;;0.80;0.50;;;;;;;-143.84;48.55;45235.69;5088712;28;20251;-60
2024/01/13 06:08:35;;;;;;;0.80;0.60;;;;;;;-143.84;47.97;45268.06;5088951;28;20229;-60
2024/01/13 06:11:03;;;;;;;0.80;0.50;;;;;;;-143.84;48.57;45218.53;5089031;28;20574;-60
2024/01/13 06:13:30;;;;;;;0.80;0.60;;;;;;;-143.84;48.06;45275.66;5088624;28;20466;-60
2024/01/13 06:15:57;;;;;;;1.43;1.33;;;;;;;-143.84;49.28;45247.09;5088563;28;20198;-60
2024/01/13 06:18:24;;;;;;;2.03;1.08;;;;;;;-143.84;50.09;45249.00;5088364;28;20493;-60
2024/01/13 06:20:51;;;;;;;0.80;0.50;;;;;;;-143.84;51.36;45254.72;5099397;28;20690;-60
2024/01/13 06:23:21;;;;;;;0.80;0.50;;;;;;;-143.84;51.88;45220.44;5108895;28;20196;-60
2024/01/13 06:25:48;;;;;;;0.80;0.50;;;;;;;-143.84;53.85;45247.09;5109101;28;20205;-60
2024/01/13 06:28:15;;;;;;;0.90;0.75;;;;;;;-143.84;54.90;45235.69;5109141;28;20224;-60
2024/01/13 06:30:43;;;;;;;0.80;0.60;;;;;;;-143.84;56.70;45222.34;5108967;28;20201;-60
2024/01/13 06:33:10;;;;;;;1.65;1.55;;;;;;;-143.84;57.31;45269.97;5109109;28;20247;-60
2024/01/13 06:35:37;;;;;;;1.23;1.13;;;;;;;-143.84;58.10;45266.16;5108808;28;20189;-60
2024/01/13 06:38:04;;;;;;;3.22;1.98;;;;;;;-143.84;59.23;45252.81;5109203;28;20193;-60
2024/01/13 06:40:33;;;;;;;1.00;0.90;;;;;;;-143.84;60.69;45260.44;5108886;28;20201;-60
2024/01/13 06:43:00;;;;;;;1.90;1.80;;;;;;;-143.84;61.68;45254.72;5112436;28;20663;-60
2024/01/13 06:45:27;;;;;;;1.40;1.30;;;;;;;-143.84;62.16;45256.63;5112470;28;20194;-60
2024/01/13 06:47:54;;;;;;;0.80;0.60;;;;;;;-143.84;63.09;45233.78;5112814;28;20193;-60
2024/01/13 06:50:21;;;;;;;1.02;0.93;;;;;;;-143.84;63.21;45247.09;5112579;28;20219;-60
2024/01/13 06:52:48;;;;;;;0.80;0.70;;;;;;;-143.84;63.97;45247.09;5112473;28;20255;-60
2024/01/13 06:55:16;;;;;;;0.80;0.70;;;;;;;-143.84;64.61;45269.97;5112656;28;20204;-60
2024/01/13 06:57:45;;;;;;;0.80;0.75;;;;;;;-143.84;64.56;45245.19;5112599;28;20197;-60
2024/01/13 07:00:13;;;;;;;1.53;1.43;;;;;;;-143.84;64.87;45252.81;5112458;28;20220;-60
2024/01/13 07:02:41;;;;;;;0.80;0.60;;;;;;;-143.84;64.93;45262.34;5112301;28;20435;-60
2024/01/13 07:05:10;;;;;;;0.80;0.50;;;;;;;-143.84;65.80;45228.06;5112325;28;20647;-60
2024/01/13 07:07:37;;;;;;;1.10;1.00;;;;;;;-143.84;65.43;45243.31;5096385;28;20237;-60
2024/01/13 07:10:05;;;;;;;2.03;1.93;;;;;;;-143.84;65.14;45245.19;5071397;28;20480;-60
2024/01/13 07:12:32;;;;;;;1.27;1.17;;;;;;;-143.84;65.24;45271.88;5084644;28;20452;-60
2024/01/13 07:15:01;;;;;;;0.80;0.50;;;;;;;-143.84;65.25;45231.88;5101835;28;20204;-60
2024/01/13 07:17:28;;;;;;;0.80;0.70;;;;;;;-143.84;65.48;45245.19;5103740;28;20193;-60
2024/01/13 07:19:55;;;;;;;0.80;0.80;;;;;;;-143.84;65.26;45254.72;5094805;28;20601;-60
2024/01/13 07:22:22;;;;;;;0.80;0.50;;;;;;;-143.84;64.98;45231.88;5070794;28;20441;-60
2024/01/13 07:24:50;;;;;;;1.10;0.90;;;;;;;-143.84;64.74;45228.06;5068074;28;20437;-60
2024/01/13 07:27:17;;;;;;;1.00;0.80;;;;;;;-143.84;64.30;45254.72;5069135;28;20448;-60
2024/01/13 07:29:44;;;;;;;5.50;1.93;;;;;;;-143.84;64.11;45237.59;5075488;28;20483;-60
2024/01/13 07:32:14;;;;;;;0.80;0.50;;;;;;;-143.84;64.03;45245.19;5074848;28;20447;-60
2024/01/13 07:34:42;;;;;;;0.80;0.60;;;;;;;-143.84;63.75;45241.41;5071052;28;20453;-60
2024/01/13 07:37:09;;;;;;;1.43;1.33;;;;;;;-143.84;63.54;45237.59;5070037;28;20883;-60
2024/01/13 07:39:36;;;;;;;1.37;1.27;;;;;;;-143.84;63.08;45235.69;5071951;28;20449;-60
2024/01/13 07:42:04;;;;;;;1.67;1.33;;;;;;;-143.84;63.00;45247.09;5069999;28;20456;-60
2024/01/13 07:44:31;;;;;;;0.80;0.47;;;;;;;-143.84;62.69;45258.53;5071314;28;20424;-60
2024/01/13 07:47:01;;;;;;;3.20;1.60;;;;;;;-143.84;62.78;45245.19;5076940;28;20578;-60
2024/01/13 07:49:29;;;;;;;0.90;0.70;;;;;;;-143.84;62.29;45247.09;5070071;28;20469;-60
2024/01/13 07:51:57;;;;;;;0.80;0.60;;;;;;;-143.84;61.72;45241.41;5070123;28;20860;-60
2024/01/13 07:54:24;;;;;;;5.00;3.53;;;;;;;-143.84;60.08;45245.19;5070162;28;20437;-60
2024/01/13 07:56:53;;;;;;;1.00;0.87;;;;;;;-143.84;58.77;45239.50;5071705;28;20980;-60
2024/01/13 07:59:21;;;;;;;1.23;1.13;;;;;;;-143.84;56.63;45233.78;5069932;28;20445;-60
2024/01/13 08:01:48;;;;;;;0.80;0.50;;;;;;;-143.84;54.86;45214.72;5070730;28;20755;-60
2024/01/13 08:04:16;;;;;;;1.20;1.10;;;;;;;-143.84;53.28;45237.59;5070741;28;20453;-60
2024/01/13 08:06:45;;;;;;;1.13;1.03;;;;;;;-143.84;52.32;45220.44;5070074;28;20504;-60
2024/01/13 08:09:12;;;;;;;1.20;1.10;;;;;;;-143.84;51.47;45216.63;5069195;28;20488;-60
2024/01/13 08:11:39;;;;;;;4.43;1.00;;;;;;;-143.84;51.08;45228.06;5061520;28;20433;-60
2024/01/13 08:14:07;;;;;;;1.00;0.90;;;;;;;-143.84;51.00;45209.03;5069539;28;20442;-60
2024/01/13 08:16:34;;;;;;;25.93;1.63;;;;;;;-143.84;50.02;45228.06;5069854;28;20437;-60
2024/01/13 08:19:02;;;;;;;0.80;0.63;;;;;;;-143.84;48.95;45224.25;5070249;28;20451;-60
2024/01/13 08:21:29;;;;;;;2.83;2.60;;;;;;;-143.84;48.41;45220.44;5086020;28;20525;-60
2024/01/13 08:23:58;;;;;;;1.10;0.80;;;;;;;-143.84;48.01;45209.03;5090212;28;20986;-61
2024/01/13 08:26:31;;;;;;;0.80;0.70;;;;;;;-143.84;48.74;45218.53;5090296;28;20446;-61
2024/01/13 08:28:58;;;;;;;1.83;1.73;;;;;;;-143.84;48.77;45220.44;5089373;28;20488;-60
2024/01/13 08:31:25;;;;;;;1.53;1.43;;;;;;;-143.84;48.30;45193.78;5088719;28;20440;-61
2024/01/13 08:33:53;;;;;;;1.93;1.70;;;;;;;-143.84;48.27;45233.78;5105441;28;20452;-61
2024/01/13 08:36:20;;;;;;;2.13;1.43;;;;;;;-143.84;47.88;45218.53;5100268;28;20465;-61
2024/01/13 08:38:47;;;;;;;2.70;2.00;;;;;;;-143.84;46.75;45189.97;5074027;28;20442;-60
2024/01/13 08:41:16;;;;;;;1.60;1.50;;;;;;;-143.84;47.09;45212.84;5087988;28;20472;-61
2024/01/13 08:43:43;;;;;;;2.17;1.63;;;;;;;-143.84;47.26;45203.31;5090490;28;21327;-61
2024/01/13 08:46:11;;;;;;;3.70;1.20;;;;;;;-143.84;46.12;45214.72;5083441;28;20447;-61
2024/01/13 08:48:38;;;;;;;1.23;1.13;;;;;;;-143.84;45.98;45201.41;5087396;28;20474;-61
2024/01/13 08:51:05;;;;;;;4.83;1.80;;;;;;;-143.84;45.03;45189.97;5100310;28;20442;-61
2024/01/13 08:53:33;;;;;;;2.07;1.97;;;;;;;-143.84;45.18;45220.44;5088716;28;20470;-61
2024/01/13 08:56:00;;;;;;;3.87;3.23;;;;;;;-143.84;45.11;45228.06;5088820;28;20438;-60
2024/01/13 08:58:29;;;;;;;1.00;0.90;;;;;;;-143.84;44.65;45207.13;5087997;28;20439;-60
2024/01/13 09:00:56;;;;;;;14.13;0.90;;;;;;;-143.84;45.21;45197.59;5088655;28;20802;-60
2024/01/13 09:03:25;;;;;;;3.33;3.13;;;;;;;-143.84;44.63;45212.84;5088317;28;20525;-61
2024/01/13 09:05:53;;;;;;;1.57;1.23;;;;;;;-143.84;44.19;45209.03;5087585;28;20848;-61
2024/01/13 09:08:20;;;;;;;1.77;1.67;;;;;;;-143.84;44.07;45209.03;5086071;28;20451;-61
2024/01/13 09:10:47;;;;;;;1.07;0.63;;;;;;;-143.84;44.38;45193.78;5075160;28;20556;-60
2024/01/13 09:13:14;;;;;;;0.80;0.70;;;;;;;-143.84;43.13;45188.06;5075238;28;20486;-60
2024/01/13 09:15:43;;;;;;;7.10;2.37;;;;;;;-143.84;43.23;45212.84;5071908;28;20449;-61
2024/01/13 09:18:10;;;;;;;1.00;0.70;;;;;;;-143.84;43.59;45203.31;5081324;28;20447;-61
2024/01/13 09:20:37;;;;;;;1.53;0.93;;;;;;;-143.84;43.74;45157.59;5082596;28;20484;-61
2024/01/13 09:23:05;;;;;;;2.27;2.07;;;;;;;-143.84;43.09;45207.13;5105319;28;20447;-60
2024/01/13 09:25:32;;;;;;;4.30;3.53;;;;;;;-143.84;42.94;45159.50;5104933;28;20444;-61
2024/01/13 09:27:59;;;;;;;0.90;0.80;;;;;;;-143.84;42.60;45188.06;5101307;28;20449;-61
2024/01/13 09:30:26;;;;;;;3.70;3.10;;;;;;;-143.84;42.42;45167.13;5103146;28;21025;-61
2024/01/13 09:32:55;;;;;;;1.13;1.03;;;;;;;-143.84;42.64;45189.97;5107196;28;20447;-61
2024/01/13 09:35:22;;;;;;;4.80;2.23;;;;;;;-143.84;42.91;45186.16;5096273;28;20443;-60
2024/01/13 09:37:49;;;;;;;1.23;1.13;;;;;;;-143.84;43.16;45182.38;5094468;28;20435;-61
2024/01/13 09:40:19;;;;;;;1.23;1.13;;;;;;;-143.84;43.77;45209.03;5103244;28;20443;-60
2024/01/13 09:42:52;;;;;;;1.13;1.03;;;;;;;-143.84;43.22;45178.56;5097751;28;20456;-60
2024/01/13 09:45:21;;;;;;;2.37;2.17;;;;;;;-143.84;42.49;45247.09;5101112;28;20492;-60
2024/01/13 09:47:48;;;;;;;1.20;1.10;;;;;;;-143.84;42.91;45176.66;5088351;28;20474;-58
2024/01/13 09:50:17;;;;;;;1.13;1.03;;;;;;;-143.84;43.56;45178.56;5085017;28;20470;-58
2024/01/13 09:52:46;;;;;;;2.53;0.97;;;;;;;-143.84;43.13;45178.56;5107306;28;20983;-58
2024/01/13 09:55:16;;;;;;;2.40;1.17;;;;;;;-143.84;42.96;45174.75;5090719;28;20424;-58
2024/01/13 09:57:44;;;;;;;2.30;1.70;;;;;;;-143.84;42.37;45172.84;5096612;28;20439;-56
2024/01/13 10:00:13;;;;;;;2.67;2.47;;;;;;;-143.84;41.97;45172.84;5068811;28;20981;-56
2024/01/13 10:02:40;;;;;;;0.90;0.77;;;;;;;-143.84;41.90;45193.78;5100455;28;20445;-56
2024/01/13 10:05:08;;;;;;;1.07;1.00;;;;;;;-143.84;41.74;45193.78;5092499;28;20454;-56
2024/01/13 10:07:43;;;;;;;2.60;1.70;;;;;;;-143.84;44.84;45148.09;5099288;28;20461;-56
2024/01/13 10:10:11;;;;;;;1.30;1.20;;;;;;;-143.84;42.50;45159.50;5109063;28;20480;-56
2024/01/13 10:12:39;;;;;;;1.70;1.60;;;;;;;-143.84;41.56;45165.22;5109081;28;20467;-56
2024/01/13 10:15:14;;;;;;;1.03;0.93;;;;;;;-143.84;40.85;45184.25;5106805;28;20440;-56
2024/01/13 10:17:41;;;;;;;1.30;1.20;;;;;;;-143.84;41.23;45150.00;5109095;28;20459;-56
2024/01/13 10:20:13;;;;;;;1.50;1.40;;;;;;;-143.84;41.05;45189.97;5108962;28;20480;-56
2024/01/13 10:22:42;;;;;;;0.80;0.60;;;;;;;-143.84;40.43;45180.47;5091950;28;20458;-56
2024/01/13 10:25:10;;;;;;;2.00;1.20;;;;;;;-143.84;40.17;45174.75;5086646;28;20974;-56
2024/01/13 10:27:38;;;;;;;1.53;1.43;;;;;;;-143.84;40.48;45188.06;5104857;28;20531;-56
2024/01/13 10:30:07;;;;;;;1.73;1.63;;;;;;;-143.84;40.78;45170.94;5088083;28;20492;-56
2024/01/13 10:32:35;;;;;;;2.70;2.50;;;;;;;-143.84;41.11;45170.94;5110551;28;20463;-56
2024/01/13 10:35:03;;;;;;;1.13;1.03;;;;;;;-143.84;41.03;45184.25;5103080;28;20435;-56
2024/01/13 10:37:31;;;;;;;2.93;1.00;;;;;;;-143.84;41.44;45165.22;5085634;28;20462;-57
2024/01/13 10:40:00;;;;;;;1.97;1.03;;;;;;;-143.84;41.16;45209.03;5075598;28;20457;-56
2024/01/13 10:42:33;;;;;;;1.93;1.30;;;;;;;-143.84;41.45;45191.88;5112996;28;20847;-56
2024/01/13 10:45:05;;;;;;;3.73;1.73;;;;;;;-143.84;41.92;45207.13;5093276;28;20448;-56
2024/01/13 10:47:34;;;;;;;1.97;1.87;;;;;;;-143.84;42.12;45191.88;5071353;28;20441;-56
2024/01/13 10:50:01;;;;;;;0.90;0.70;;;;;;;-143.84;42.56;45184.25;5077186;28;20488;-56
2024/01/13 10:52:34;;;;;;;2.57;1.13;;;;;;;-143.84;42.73;45174.75;5078237;28;20865;-56
2024/01/13 10:55:04;;;;;;;1.37;0.83;;;;;;;-143.84;42.34;45209.03;5071993;28;20498;-56
2024/01/13 10:57:34;;;;;;;1.20;1.10;;;;;;;-143.84;42.65;45159.50;5071782;28;20483;-56
2024/01/13 11:00:04;;;;;;;1.67;1.57;;;;;;;-143.84;42.60;45189.97;5095273;28;20444;-56
2024/01/13 11:02:33;;;;;;;1.87;1.77;;;;;;;-143.84;42.25;45172.84;5111674;28;20561;-56
2024/01/13 11:05:02;;;;;;;1.07;0.80;;;;;;;-143.84;42.25;45174.75;5103185;28;20443;-56
2024/01/13 11:07:29;;;;;;;0.97;0.90;;;;;;;-143.84;42.29;45174.75;5091780;28;20428;-56
2024/01/13 11:10:00;;;;;;;3.90;2.00;;;;;;;-143.84;42.53;45174.75;5091771;28;20483;-56
2024/01/13 11:12:35;;;;;;;0.90;0.73;;;;;;;-143.84;42.54;45170.94;5091917;28;20452;-56
2024/01/13 11:15:09;;;;;;;0.80;0.60;;;;;;;-143.84;42.24;45161.41;5091808;28;20435;-56
2024/01/13 11:17:36;;;;;;;5.67;1.93;;;;;;;-143.84;41.73;45159.50;5092714;28;20440;-56
2024/01/13 11:20:04;;;;;;;7.17;2.77;;;;;;;-143.84;42.17;45167.13;5094252;28;20471;-56